Time;durP1;ratioP1;P1;durP2;ratioP2;P2;SDS_P1;SDS_P2;PMS_P1;PMS_P2;Temp;Humidity;BMP_temperature;BMP_pressure;BME280_temperature;BME280_humidity;BME280_pressure;Samples;Min_cycle;Max_cycle;Signal;HPM_P1;HPM_P2
2023/07/11 00:00:19;;;;;;;13.40;4.13;;;15.00;99.90;;;14.00;100.00;101498.78;5031583;28;20578;-75
2023/07/11 00:02:47;;;;;;;8.63;4.00;;;15.00;99.90;;;13.94;100.00;101497.28;5014095;28;20473;-75
2023/07/11 00:05:15;;;;;;;5.85;4.68;;;15.00;99.90;;;13.89;100.00;101490.50;5015904;28;20033;-75
2023/07/11 00:07:42;;;;;;;14.25;4.85;;;14.90;99.90;;;13.85;100.00;101486.31;5018331;28;20080;-75
2023/07/11 00:10:11;;;;;;;23.00;5.55;;;14.80;99.90;;;13.81;100.00;101492.66;5016488;28;20034;-75
2023/07/11 00:12:37;;;;;;;15.43;4.90;;;14.80;99.90;;;13.77;100.00;101496.38;5014874;28;20052;-74
2023/07/11 00:15:04;;;;;;;15.00;4.13;;;14.80;99.90;;;13.72;100.00;101488.69;5010192;28;20044;-75
2023/07/11 00:17:30;;;;;;;14.50;4.68;;;14.70;99.90;;;13.68;100.00;101490.59;5017148;28;20454;-75
2023/07/11 00:19:58;;;;;;;15.70;4.25;;;14.70;99.90;;;13.62;100.00;101490.03;5020217;28;20084;-75
2023/07/11 00:22:29;;;;;;;13.88;4.50;;;14.60;99.90;;;13.57;100.00;101484.97;5011820;28;20469;-74
2023/07/11 00:24:54;;;;;;;15.88;5.57;;;14.60;99.90;;;13.53;100.00;101486.88;5000210;28;20120;-75
2023/07/11 00:27:23;;;;;;;19.15;5.50;;;14.50;99.90;;;13.50;100.00;101478.25;5016254;28;21025;-74
2023/07/11 00:29:49;;;;;;;1329.90;127.85;;;14.50;99.90;;;13.48;100.00;101474.81;5018926;28;20655;-75
2023/07/11 00:32:16;;;;;;;74.15;67.30;;;14.50;99.90;;;13.45;100.00;101475.78;5019516;28;20069;-75
2023/07/11 00:34:42;;;;;;;1083.60;542.03;;;14.50;99.90;;;13.43;100.00;101477.66;5011409;28;20109;-74
2023/07/11 00:37:07;;;;;;;0.00;0.00;;;14.50;99.90;;;13.41;100.00;101478.66;5017306;28;20075;-75
2023/07/11 00:39:35;;;;;;;0.00;0.00;;;14.40;99.90;;;13.39;100.00;101476.09;5017931;28;20417;-75
2023/07/11 00:42:06;;;;;;;0.00;0.00;;;14.40;99.90;;;13.38;100.00;101479.66;5016787;28;20029;-75
2023/07/11 00:45:58;;;;;;;0.00;0.00;;;14.40;99.90;;;13.37;100.00;101495.59;5021325;28;20030;-75
2023/07/11 00:48:24;;;;;;;0.00;0.00;;;14.40;99.90;;;13.28;100.00;101486.25;4849935;29;20057;-75
2023/07/11 00:50:53;;;;;;;2.72;2.63;;;14.30;99.90;;;13.26;100.00;101489.00;4854608;29;20033;-75
2023/07/11 00:53:19;;;;;;;1040.05;517.25;;;14.30;99.90;;;13.24;100.00;101492.63;4851670;29;20068;-74
2023/07/11 00:55:46;;;;;;;13.13;4.70;;;14.30;99.90;;;13.21;100.00;101483.03;4839458;29;20502;-75
2023/07/11 00:58:19;;;;;;;12.45;3.00;;;14.30;99.90;;;13.19;100.00;101479.59;4854990;29;20065;-75
2023/07/11 01:00:45;;;;;;;6.28;2.33;;;14.20;99.90;;;13.13;100.00;101480.78;4842141;29;20045;-74
2023/07/11 01:03:11;;;;;;;7.00;2.22;;;14.20;99.90;;;13.10;100.00;101486.19;4839252;29;20565;-74
2023/07/11 01:05:39;;;;;;;4.10;1.92;;;14.10;99.90;;;13.06;100.00;101481.94;4837905;29;20038;-74
2023/07/11 01:08:05;;;;;;;7.03;2.50;;;14.10;99.90;;;13.02;100.00;101483.00;4840684;29;20038;-75
2023/07/11 01:10:31;;;;;;;5.35;2.92;;;14.10;99.90;;;13.00;100.00;101489.28;4839334;29;20041;-75
2023/07/11 01:13:01;;;;;;;9.23;2.88;;;14.00;99.90;;;12.95;100.00;101480.72;4850607;29;20454;-75
2023/07/11 01:15:26;;;;;;;3.78;1.20;;;14.00;99.90;;;12.89;100.00;101488.00;4854470;29;20041;-75
2023/07/11 01:17:52;;;;;;;30.40;2.85;;;13.90;99.90;;;12.78;100.00;101479.69;4854203;29;20120;-74
2023/07/11 01:20:18;;;;;;;;;;;13.90;99.90;;;12.64;100.00;101479.44;4853325;29;20150;-74
2023/07/11 01:22:44;;;;;;;13.85;3.15;;;13.70;99.90;;;12.54;100.00;101481.59;4906208;28;19967;-75
2023/07/11 01:25:14;;;;;;;;;;;13.70;99.90;;;12.48;100.00;101474.81;4999704;28;20029;-74
2023/07/11 01:27:44;;;;;;;124.55;14.43;;;13.50;99.90;;;12.40;100.00;101474.28;5015721;28;19927;-74
2023/07/11 01:30:14;;;;;;;1999.90;999.90;;;13.50;99.90;;;12.37;100.00;101469.09;5018841;28;20029;-74
2023/07/11 01:32:40;;;;;;;1999.90;999.90;;;13.50;99.90;;;12.34;100.00;101474.53;5014213;28;20044;-75
2023/07/11 01:35:06;;;;;;;1999.90;999.90;;;13.50;99.90;;;12.31;100.00;101477.31;5008368;28;20038;-75
2023/07/11 01:37:32;;;;;;;1999.90;999.90;;;13.40;99.90;;;12.32;100.00;101471.94;5016138;28;20029;-75
2023/07/11 01:39:58;;;;;;;196.55;89.13;;;13.40;99.90;;;12.31;100.00;101464.09;5016855;28;20045;-74
2023/07/11 01:42:24;;;;;;;;;;;13.40;99.90;;;12.26;100.00;101471.34;5019262;28;20048;-74
2023/07/11 01:44:50;;;;;;;1999.90;999.90;;;13.30;99.90;;;12.21;100.00;101470.69;5016170;28;21079;-74
2023/07/11 01:47:16;;;;;;;1999.90;999.90;;;13.30;99.90;;;12.18;100.00;101469.03;5012331;28;20033;-74
2023/07/11 01:49:42;;;;;;;1037.05;523.58;;;13.30;99.90;;;12.18;100.00;101468.16;4997934;28;20141;-74
2023/07/11 01:52:19;;;;;;;9.10;3.55;;;13.30;99.90;;;12.20;100.00;101472.47;5014474;28;20033;-75
2023/07/11 01:54:46;;;;;;;10.50;2.53;;;13.30;99.90;;;12.21;100.00;101470.69;5013993;28;20033;-74
2023/07/11 01:57:12;;;;;;;10.93;5.00;;;13.30;99.90;;;12.24;100.00;101468.75;5015601;28;20044;-75
2023/07/11 01:59:38;;;;;;;13.48;4.40;;;13.30;99.90;;;12.26;100.00;101466.91;5015176;28;20037;-75
2023/07/11 02:02:06;;;;;;;14.32;4.70;;;13.40;99.90;;;12.29;100.00;101466.81;5015592;28;20029;-74
2023/07/11 02:04:35;;;;;;;17.58;4.28;;;13.40;99.90;;;12.34;100.00;101471.03;5029340;28;20056;-74
2023/07/11 02:07:03;;;;;;;19.42;5.47;;;13.40;99.90;;;12.36;100.00;101463.91;5014390;28;20032;-74
2023/07/11 02:09:30;;;;;;;17.35;4.75;;;13.40;99.90;;;12.39;100.00;101467.25;5014211;28;20557;-75
2023/07/11 02:11:56;;;;;;;13.35;4.57;;;13.50;99.90;;;12.41;100.00;101462.78;5015014;28;22580;-75
2023/07/11 02:14:22;;;;;;;14.60;4.95;;;13.50;99.90;;;12.43;100.00;101462.72;5015840;28;20098;-75
2023/07/11 02:16:51;;;;;;;14.32;4.93;;;13.50;99.90;;;12.42;100.00;101467.16;5017750;28;20061;-75
2023/07/11 02:19:20;;;;;;;17.35;4.95;;;13.50;99.90;;;12.42;100.00;101461.88;4994508;28;20025;-74
2023/07/11 02:21:46;;;;;;;9.43;4.00;;;13.50;99.90;;;12.41;100.00;101465.41;5013381;28;20037;-75
2023/07/11 02:24:15;;;;;;;21.70;3.90;;;13.50;99.90;;;12.39;100.00;101461.97;5015986;28;20030;-74
2023/07/11 02:26:41;;;;;;;17.92;3.78;;;13.50;99.90;;;12.37;100.00;101461.19;5013708;28;20053;-75
2023/07/11 02:29:07;;;;;;;10.05;4.40;;;13.40;99.90;;;12.35;100.00;101455.09;5017311;28;20053;-74
2023/07/11 02:31:35;;;;;;;20.65;5.18;;;13.40;99.90;;;12.35;100.00;101460.38;5016155;28;20418;-75
2023/07/11 02:34:01;;;;;;;19.75;5.72;;;13.40;99.90;;;12.38;100.00;101462.06;5016019;28;20034;-75
2023/07/11 02:36:28;;;;;;;35.42;6.40;;;13.50;99.90;;;12.40;100.00;101454.94;5018318;28;20041;-75
2023/07/11 02:38:54;;;;;;;25.40;6.65;;;13.50;99.90;;;12.41;100.00;101460.13;5020394;28;20049;-75
2023/07/11 02:41:20;;;;;;;18.15;5.45;;;13.50;99.90;;;12.44;100.00;101451.22;5018439;28;20508;-74
2023/07/11 02:43:47;;;;;;;12.10;5.00;;;13.50;99.90;;;12.44;100.00;101454.75;5017403;28;20029;-74
2023/07/11 02:46:14;;;;;;;20.38;5.65;;;13.50;99.90;;;12.46;100.00;101442.31;5018593;28;20064;-75
2023/07/11 02:48:41;;;;;;;11.82;4.50;;;13.50;99.90;;;12.49;100.00;101447.47;5017871;28;20052;-75
2023/07/11 02:51:07;;;;;;;10.90;3.42;;;13.60;99.90;;;12.50;100.00;101445.66;5020745;28;20061;-75
2023/07/11 02:53:33;;;;;;;14.98;4.53;;;13.60;99.90;;;12.50;100.00;101441.28;5021022;28;20045;-75
2023/07/11 02:55:58;;;;;;;;;;;13.60;99.90;;;12.51;100.00;101444.75;5015654;28;20064;-75
2023/07/11 02:58:24;;;;;;;15.43;4.40;;;13.60;99.90;;;12.49;100.00;101442.19;5019661;28;19920;-75
2023/07/11 03:00:55;;;;;;;6.03;2.97;;;13.60;99.90;;;12.50;100.00;101446.56;5018954;28;20079;-75
2023/07/11 03:03:21;;;;;;;6.72;2.58;;;13.60;99.90;;;12.52;100.00;101438.53;5017267;28;20030;-75
2023/07/11 03:05:49;;;;;;;8.32;3.38;;;13.60;99.90;;;12.57;100.00;101441.84;5017415;28;20500;-75
2023/07/11 03:08:16;;;;;;;10.27;4.72;;;13.60;99.90;;;12.63;100.00;101438.91;5018495;28;20497;-75
2023/07/11 03:10:43;;;;;;;13.82;4.40;;;13.70;99.90;;;12.68;100.00;101439.59;5019006;28;20660;-75
2023/07/11 03:13:10;;;;;;;11.38;4.70;;;13.70;99.90;;;12.73;100.00;101442.03;5016792;28;20030;-75
2023/07/11 03:15:39;;;;;;;11.95;4.75;;;13.70;99.90;;;12.75;100.00;101447.25;5022333;28;20041;-74
2023/07/11 03:18:07;;;;;;;13.27;3.75;;;13.80;99.90;;;12.77;100.00;101446.25;5014047;28;20192;-75
2023/07/11 03:20:38;;;;;;;13.45;3.88;;;13.80;99.90;;;12.76;100.00;101447.16;5018272;28;20030;-75
2023/07/11 03:23:04;;;;;;;18.88;4.25;;;13.80;99.90;;;12.76;100.00;101452.44;5019482;28;20364;-75
2023/07/11 03:25:30;;;;;;;12.57;3.88;;;13.70;99.90;;;12.75;100.00;101450.75;5016528;28;20041;-75
2023/07/11 03:27:56;;;;;;;11.75;4.50;;;13.70;99.90;;;12.73;100.00;101444.69;5021720;28;20040;-74
2023/07/11 03:30:22;;;;;;;21.42;4.97;;;13.70;99.90;;;12.76;100.00;101449.81;5015669;28;20083;-75
2023/07/11 03:32:47;;;;;;;;;;;13.70;99.90;;;12.79;100.00;101456.78;5018008;28;20029;-75
2023/07/11 03:35:13;;;;;;;8.60;2.63;;;13.80;99.90;;;12.76;100.00;101452.44;5016345;28;19974;-75
2023/07/11 03:37:39;;;;;;;;;;;13.70;99.90;;;12.75;100.00;101453.41;5015563;28;20027;-75
2023/07/11 03:40:05;;;;;;;7.95;3.10;;;13.80;99.90;;;12.78;100.00;101455.88;5022224;28;19921;-74
2023/07/11 03:42:31;;;;;;;8.43;2.30;;;13.80;99.90;;;12.82;100.00;101460.13;5017407;28;20037;-75
2023/07/11 03:44:57;;;;;;;3.65;2.35;;;13.80;99.90;;;12.90;100.00;101465.94;5019229;28;20153;-75
2023/07/11 03:47:23;;;;;;;;;;;13.80;99.90;;;13.75;100.00;101468.19;5019033;28;20113;-75
2023/07/11 03:49:49;;;;;;;11.15;3.17;;;16.10;99.90;;;15.39;100.00;101477.47;5016830;28;20437;-75
2023/07/11 03:52:15;;;;;;;4.45;2.15;;;17.70;99.90;;;17.16;100.00;101479.66;5022382;28;20029;-75
2023/07/11 03:54:41;;;;;;;6.93;1.63;;;19.20;99.90;;;18.87;89.61;101487.16;5020454;28;20026;-76
2023/07/11 03:57:06;;;;;;;;;;;19.40;99.90;;;20.54;79.65;101488.31;5018143;28;20128;-75
2023/07/11 03:59:32;;;;;;;5.40;1.60;;;22.00;99.90;;;21.95;71.62;101495.03;4999326;28;19917;-76
2023/07/11 04:01:59;;;;;;;11.50;2.20;;;23.20;99.90;;;23.22;66.77;101512.03;5018596;28;20716;-76
2023/07/11 04:04:24;;;;;;;7.00;2.38;;;24.10;99.90;;;24.24;63.78;101517.28;5016776;28;20510;-76
2023/07/11 04:06:50;;;;;;;7.15;2.40;;;24.80;99.90;;;24.64;60.63;101518.97;5028370;28;20133;-75
2023/07/11 04:09:16;;;;;;;;;;;24.80;99.90;;;25.15;59.50;101520.41;5018936;28;20575;-75
2023/07/11 04:11:42;;;;;;;1010.78;509.85;;;25.80;99.90;;;25.58;57.83;101522.50;5018022;28;19913;-75
2023/07/11 04:14:10;;;;;;;;;;;25.80;99.90;;;26.10;57.64;101539.97;5012479;28;20071;-75
2023/07/11 04:16:36;;;;;;;1999.90;999.90;;;26.30;99.90;;;26.09;56.48;101531.03;5017807;28;20331;-76
2023/07/11 04:19:02;;;;;;;1999.90;999.90;;;26.60;99.90;;;26.47;55.77;101547.03;5014770;28;20041;-75
2023/07/11 04:21:49;;;;;;;0.20;0.20;;;27.10;99.90;;;27.31;53.90;101551.91;5017694;28;20045;-76
2023/07/11 04:24:14;;;;;;;0.10;0.10;;;27.60;99.90;;;27.91;52.26;101553.69;5000517;28;20375;-77
2023/07/11 04:26:40;;;;;;;1999.90;999.90;;;28.30;99.90;;;28.91;50.68;101566.28;5014078;28;20125;-75
2023/07/11 04:29:06;;;;;;;;;;;28.30;99.90;;;30.20;49.14;101581.41;5018668;28;20113;-76
2023/07/11 04:31:32;;;;;;;2.40;2.13;;;30.00;99.90;;;31.08;46.94;101590.94;5013304;28;19928;-75
2023/07/11 04:33:57;;;;;;;1999.90;999.90;;;30.70;98.90;;;31.85;44.78;101595.97;5016537;28;20569;-75
2023/07/11 04:36:23;;;;;;;1999.90;999.90;;;31.30;97.20;;;32.56;43.75;101605.38;4997665;28;20073;-76
2023/07/11 04:38:49;;;;;;;31.15;13.77;;;32.00;95.40;;;33.29;41.94;101603.22;5019340;28;20041;-76
2023/07/11 04:41:15;;;;;;;5.00;4.40;;;32.50;94.90;;;33.88;41.20;101601.84;5014451;28;20054;-76
2023/07/11 04:43:41;;;;;;;3.95;3.10;;;33.10;94.50;;;34.58;40.12;101610.66;5015992;28;20405;-76
2023/07/11 04:46:08;;;;;;;4.50;2.28;;;33.30;94.10;;;34.36;40.17;101615.44;5016771;28;20068;-75
2023/07/11 04:48:35;;;;;;;5.40;2.45;;;32.80;94.20;;;32.94;41.75;101597.72;5017893;28;20103;-75
2023/07/11 04:51:07;;;;;;;4.72;3.30;;;32.60;94.30;;;33.45;40.97;101610.22;5016698;28;20045;-75
2023/07/11 04:53:34;;;;;;;608.67;185.60;;;32.70;94.30;;;34.48;39.60;101623.88;5013954;28;20042;-76
2023/07/11 04:56:08;;;;;;;24.05;9.13;;;33.30;93.80;;;35.44;38.38;101633.53;5015985;28;20033;-76
2023/07/11 04:58:35;;;;;;;18.45;3.42;;;33.90;92.70;;;35.89;37.57;101636.38;5014456;28;21480;-75
2023/07/11 05:01:14;;;;;;;18.75;4.00;;;34.50;92.30;;;36.84;36.05;101639.16;5014692;28;20052;-76
2023/07/11 05:03:40;;;;;;;11.48;3.25;;;35.00;92.10;;;37.63;35.05;101647.72;5015864;28;20034;-75
2023/07/11 05:06:08;;;;;;;15.18;3.33;;;35.60;91.50;;;38.24;34.02;101650.53;5013582;28;20038;-77
2023/07/11 05:08:34;;;;;;;18.35;3.67;;;36.10;90.60;;;38.81;33.70;101656.44;5014109;28;20070;-76
2023/07/11 05:11:01;;;;;;;15.60;3.20;;;36.50;90.30;;;39.05;33.08;101653.72;5017308;28;20025;-76
2023/07/11 05:13:30;;;;;;;23.92;3.60;;;36.80;89.40;;;39.64;32.25;101654.53;5014180;28;20048;-76
2023/07/11 05:16:08;;;;;;;13.60;3.20;;;37.20;88.10;;;40.15;31.93;101658.34;5017156;28;20037;-75
2023/07/11 05:18:40;;;;;;;15.63;3.45;;;37.50;87.90;;;40.56;31.19;101652.72;5014978;28;20045;-77
2023/07/11 05:21:09;;;;;;;16.92;3.67;;;37.90;86.60;;;40.99;30.47;101662.25;5015484;28;20035;-77
2023/07/11 05:23:36;;;;;;;13.77;3.55;;;38.20;85.40;;;41.26;30.18;101659.66;5016574;28;20697;-76
2023/07/11 05:26:06;;;;;;;22.30;4.78;;;38.50;85.00;;;41.75;29.24;101664.47;5014017;28;20033;-76
2023/07/11 05:28:32;;;;;;;15.60;3.78;;;38.70;84.00;;;41.68;29.36;101656.38;5014857;28;20044;-76
2023/07/11 05:31:02;;;;;;;227.52;34.42;;;38.90;82.80;;;42.32;29.31;101657.66;5012890;28;20037;-76
2023/07/11 05:33:29;;;;;;;17.02;3.03;;;39.20;83.10;;;43.02;28.93;101655.75;5006884;28;20038;-76
2023/07/11 05:36:15;;;;;;;10.18;3.15;;;39.60;81.10;;;43.21;28.34;101651.44;4993611;28;20029;-75
2023/07/11 05:38:42;;;;;;;2.05;1.33;;;39.80;78.60;;;43.06;28.71;101650.53;5015710;28;20041;-75
2023/07/11 05:41:08;;;;;;;7.00;1.55;;;39.90;79.50;;;43.36;28.68;101638.78;5015988;28;20040;-76
2023/07/11 05:43:33;;;;;;;5.90;1.48;;;40.10;79.50;;;43.65;28.49;101625.34;4998618;28;20041;-77
2023/07/11 05:45:59;;;;;;;5.00;1.40;;;40.30;78.20;;;43.83;28.17;101630.41;5013669;28;20498;-77
2023/07/11 05:48:25;;;;;;;13.43;3.05;;;40.60;78.70;;;44.07;27.54;101632.69;5014308;28;20132;-76
2023/07/11 05:51:11;;;;;;;18.42;3.10;;;40.90;79.10;;;44.49;27.23;101628.84;5014204;28;20044;-76
2023/07/11 05:53:37;;;;;;;19.67;2.92;;;41.00;77.20;;;43.70;27.72;101614.28;5012589;28;20128;-77
2023/07/11 05:56:03;;;;;;;13.27;2.95;;;41.00;76.20;;;43.76;27.46;101615.97;5014256;28;20497;-76
2023/07/11 05:58:31;;;;;;;20.48;3.75;;;41.10;76.90;;;44.35;26.86;101611.06;5018034;28;20039;-76
2023/07/11 06:00:58;;;;;;;15.68;3.40;;;41.50;76.30;;;44.63;27.03;101602.19;5031734;28;20105;-76
2023/07/11 06:03:26;;;;;;;18.13;3.40;;;41.80;75.90;;;44.70;26.41;101604.66;4994974;28;20098;-76
2023/07/11 06:05:55;;;;;;;9.80;3.13;;;41.90;74.50;;;44.77;26.60;101593.25;5012185;28;20045;-76
2023/07/11 06:08:21;;;;;;;14.70;3.17;;;42.30;73.80;;;44.99;26.37;101592.94;5014419;28;20402;-77
2023/07/11 06:10:47;;;;;;;28.00;3.70;;;42.20;74.80;;;45.09;26.46;101587.38;5007770;28;20044;-77
2023/07/11 06:13:14;;;;;;;15.75;2.55;;;42.50;74.00;;;44.32;26.39;101589.41;5013720;28;20538;-77
2023/07/11 06:15:41;;;;;;;10.05;2.42;;;42.60;72.60;;;43.28;27.43;101578.34;4997539;28;20058;-77
2023/07/11 06:18:07;;;;;;;15.88;2.50;;;41.80;72.10;;;42.96;27.83;101573.72;5016705;28;20402;-76
2023/07/11 06:20:33;;;;;;;11.43;3.10;;;41.30;71.00;;;42.14;28.46;101556.47;5013615;28;20040;-76
2023/07/11 06:23:00;;;;;;;20.42;3.75;;;41.10;72.30;;;42.29;28.05;101559.41;5016348;28;20490;-76
2023/07/11 06:25:26;;;;;;;20.85;4.25;;;41.00;72.30;;;42.44;28.04;101549.56;5014076;28;20117;-77
2023/07/11 06:27:51;;;;;;;15.50;2.22;;;41.00;71.20;;;42.69;27.75;101554.44;5009644;28;20458;-76
2023/07/11 06:30:17;;;;;;;21.40;3.05;;;41.10;72.30;;;42.78;27.26;101553.66;5015628;28;20104;-77
2023/07/11 06:32:43;;;;;;;16.92;3.30;;;41.30;70.40;;;43.02;27.19;101551.31;5014708;28;20087;-76
2023/07/11 06:35:09;;;;;;;21.55;3.20;;;41.50;69.60;;;42.96;26.91;101555.19;5016321;28;25145;-77
2023/07/11 06:37:35;;;;;;;14.82;3.03;;;41.60;69.20;;;43.01;26.89;101552.44;5013238;28;20057;-76
2023/07/11 06:40:03;;;;;;;20.58;3.55;;;41.70;69.50;;;43.08;26.82;101560.50;5014637;28;20083;-77
2023/07/11 06:42:29;;;;;;;11.23;2.80;;;41.70;69.00;;;43.14;26.58;101556.63;4997764;28;20568;-77
2023/07/11 06:44:55;;;;;;;11.40;2.97;;;41.90;68.90;;;43.27;26.36;101560.88;5028593;28;20105;-77
2023/07/11 06:47:21;;;;;;;15.35;3.17;;;41.90;70.30;;;43.34;26.22;101557.84;5017272;28;20148;-76
2023/07/11 06:49:47;;;;;;;15.25;2.92;;;42.10;69.00;;;43.56;26.14;101563.19;5016017;28;20105;-76
2023/07/11 06:52:12;;;;;;;14.88;2.55;;;42.30;68.60;;;43.38;26.18;101553.44;5014064;28;20128;-76
2023/07/11 06:54:38;;;;;;;13.27;2.60;;;42.30;68.60;;;43.67;26.30;101558.53;5015165;28;20746;-76
2023/07/11 06:57:04;;;;;;;9.23;2.05;;;42.50;68.70;;;43.92;26.06;101563.28;4996870;28;20124;-77
2023/07/11 06:59:30;;;;;;;14.38;3.05;;;42.70;67.90;;;44.06;25.55;101560.81;5016418;28;20033;-76
2023/07/11 07:01:56;;;;;;;12.55;2.30;;;42.90;67.20;;;44.12;25.47;101563.31;5017832;28;20087;-76
2023/07/11 07:04:21;;;;;;;18.30;3.00;;;43.10;66.80;;;43.87;26.04;101560.50;5004674;28;20165;-76
2023/07/11 07:06:47;;;;;;;14.98;2.42;;;43.20;67.00;;;43.49;25.65;101557.06;5012128;28;20035;-76
2023/07/11 07:09:13;;;;;;;10.55;2.33;;;43.10;65.80;;;43.51;26.09;101555.69;5016317;28;20034;-76
2023/07/11 07:11:40;;;;;;;15.57;2.08;;;43.00;66.10;;;43.51;25.19;101564.00;5013006;28;20196;-76
2023/07/11 07:14:09;;;;;;;8.60;1.88;;;43.00;65.50;;;43.26;25.28;101550.06;5015125;28;20120;-76
2023/07/11 07:16:37;;;;;;;6.07;1.80;;;42.90;64.10;;;43.04;25.30;101555.75;4994228;28;20041;-76
2023/07/11 07:19:05;;;;;;;8.43;1.90;;;42.80;63.80;;;42.73;25.39;101553.63;5017463;28;20041;-76
2023/07/11 07:21:32;;;;;;;8.35;2.13;;;42.50;64.00;;;42.35;25.88;101529.81;5019670;28;20628;-77
2023/07/11 07:23:58;;;;;;;8.40;1.80;;;41.80;64.00;;;42.29;25.57;101526.19;5020207;28;20129;-76
2023/07/11 07:26:24;;;;;;;17.10;2.10;;;42.10;64.00;;;42.11;25.34;101532.94;5015155;28;20506;-76
2023/07/11 07:28:50;;;;;;;14.68;2.05;;;42.00;62.90;;;41.19;26.24;101518.97;5016570;28;20041;-76
2023/07/11 07:31:16;;;;;;;8.52;1.98;;;41.20;63.60;;;41.00;26.96;101507.38;5020365;28;20647;-76
2023/07/11 07:33:42;;;;;;;5.53;1.75;;;40.90;64.10;;;41.02;26.90;101498.84;5016740;28;20386;-76
2023/07/11 07:36:11;;;;;;;17.83;1.63;;;40.80;64.10;;;41.15;26.79;101494.88;5016576;28;20038;-76
2023/07/11 07:38:39;;;;;;;11.15;2.13;;;40.80;63.40;;;41.23;26.57;101494.41;5001064;28;20040;-76
2023/07/11 07:41:08;;;;;;;11.10;1.98;;;40.80;63.40;;;41.11;26.61;101490.94;5017985;28;20065;-77
2023/07/11 07:43:36;;;;;;;16.20;2.50;;;40.70;64.00;;;40.71;26.95;101481.84;5015862;28;20049;-76
2023/07/11 07:46:03;;;;;;;12.27;2.00;;;40.50;63.80;;;40.55;27.23;101468.91;5019377;28;20049;-77
2023/07/11 07:48:30;;;;;;;15.70;2.17;;;40.40;64.20;;;40.51;27.33;101460.28;5017983;28;20040;-77
2023/07/11 07:51:09;;;;;;;8.57;2.05;;;40.20;64.50;;;40.36;26.66;101462.84;5015447;28;20587;-76
2023/07/11 07:53:36;;;;;;;9.70;1.80;;;40.20;63.50;;;40.41;26.73;101456.56;5017257;28;20036;-77
2023/07/11 07:56:08;;;;;;;9.05;1.70;;;40.00;63.70;;;40.17;27.45;101454.78;5017082;28;20056;-76
2023/07/11 07:58:34;;;;;;;22.00;2.10;;;39.80;62.60;;;39.61;27.59;101444.72;5018195;28;20033;-77
2023/07/11 08:01:03;;;;;;;9.90;2.28;;;39.50;63.00;;;39.33;27.42;101438.97;4999871;28;20536;-76
2023/07/11 08:03:28;;;;;;;9.77;2.20;;;39.20;64.40;;;39.15;27.72;101428.97;4995609;28;20486;-75
2023/07/11 08:05:56;;;;;;;11.10;2.65;;;38.90;64.40;;;38.86;27.85;101430.03;5015667;28;20109;-76
2023/07/11 08:08:23;;;;;;;9.55;2.10;;;38.60;64.70;;;38.66;28.31;101427.66;5018222;28;20053;-76
2023/07/11 08:10:49;;;;;;;7.75;1.90;;;38.40;64.20;;;38.57;27.85;101419.75;5016401;28;20052;-75
2023/07/11 08:13:15;;;;;;;6.57;1.85;;;38.20;65.80;;;38.34;28.99;101417.03;5017057;28;20160;-75
2023/07/11 08:15:42;;;;;;;13.55;2.30;;;38.00;66.30;;;38.49;29.15;101409.16;5013712;28;20406;-76
2023/07/11 08:18:10;;;;;;;7.70;1.45;;;37.80;65.10;;;38.06;28.91;101404.84;5016446;28;20034;-76
2023/07/11 08:20:36;;;;;;;9.70;1.95;;;37.60;66.30;;;37.78;29.33;101401.91;5016767;28;20038;-76
2023/07/11 08:23:02;;;;;;;11.40;2.03;;;37.30;66.20;;;37.46;29.51;101393.94;5018022;28;20040;-76
2023/07/11 08:25:28;;;;;;;14.30;2.20;;;37.10;66.00;;;37.11;29.64;101386.41;5016795;28;20069;-76
2023/07/11 08:27:54;;;;;;;11.82;2.17;;;36.90;66.20;;;36.83;30.11;101384.22;5013801;28;20124;-75
2023/07/11 08:30:20;;;;;;;8.57;1.98;;;36.30;66.00;;;35.38;31.49;101368.84;5002573;28;20039;-76
2023/07/11 08:32:45;;;;;;;12.43;2.20;;;35.50;66.30;;;34.45;31.96;101354.50;5022578;28;20524;-75
2023/07/11 08:35:11;;;;;;;13.00;2.25;;;34.70;68.70;;;34.25;32.73;101348.22;5004622;28;20025;-75
2023/07/11 08:37:37;;;;;;;6.97;1.88;;;34.30;67.10;;;33.87;33.37;101348.88;5016946;28;20391;-76
2023/07/11 08:40:04;;;;;;;8.73;2.03;;;33.80;69.50;;;33.48;33.90;101328.69;5017281;28;20109;-75
2023/07/11 08:42:40;;;;;;;7.70;2.05;;;33.60;70.90;;;33.26;33.89;101331.59;5013863;28;20030;-75
2023/07/11 08:45:29;;;;;;;11.15;1.80;;;33.50;71.60;;;33.12;35.52;101326.31;5018509;28;20037;-75
2023/07/11 08:48:02;;;;;;;10.75;1.88;;;33.40;70.60;;;33.03;35.20;101328.34;5017802;28;20026;-76
2023/07/11 08:50:40;;;;;;;7.13;1.65;;;33.10;73.60;;;32.57;36.66;101324.41;5010794;28;20034;-75
2023/07/11 08:53:09;;;;;;;8.40;2.25;;;33.00;72.60;;;32.61;36.08;101311.19;5016299;28;20034;-75
2023/07/11 08:55:42;;;;;;;10.63;2.33;;;32.90;72.90;;;32.65;35.61;101315.19;5015955;28;20710;-76
2023/07/11 08:58:32;;;;;;;8.35;2.05;;;32.80;70.40;;;32.17;34.15;101317.84;5015595;28;20121;-76
2023/07/11 09:01:04;;;;;;;9.23;1.77;;;32.40;70.20;;;31.88;35.23;101306.13;5015153;28;20034;-75
2023/07/11 09:03:46;;;;;;;8.75;1.88;;;32.20;72.50;;;31.58;35.64;101305.47;5015891;28;20041;-75
2023/07/11 09:06:18;;;;;;;6.43;1.80;;;31.90;72.90;;;31.36;36.48;101285.53;5015000;28;20029;-75
2023/07/11 09:08:47;;;;;;;14.77;2.40;;;31.70;73.40;;;31.19;36.73;101285.81;5020724;28;20682;-75
2023/07/11 09:11:35;;;;;;;5.30;1.85;;;31.70;75.50;;;31.32;37.13;101278.78;5015008;28;20046;-75
2023/07/11 09:14:43;;;;;;;7.22;1.75;;;31.70;73.60;;;31.24;36.99;101280.63;5016851;28;20063;-75
2023/07/11 09:17:41;;;;;;;17.42;1.80;;;31.70;72.90;;;31.28;36.07;101281.06;5000599;28;20214;-76
2023/07/11 09:20:40;;;;;;;15.10;2.10;;;31.50;74.70;;;30.86;37.61;101264.56;5020346;28;20021;-75
2023/07/11 09:23:41;;;;;;;7.53;1.50;;;31.20;76.10;;;30.70;38.25;101259.31;5000534;28;20386;-75
2023/07/11 09:26:27;;;;;;;7.50;1.73;;;31.10;75.10;;;30.72;37.54;101261.84;5015994;28;20041;-75
2023/07/11 09:29:08;;;;;;;9.98;1.70;;;31.10;74.90;;;30.65;37.54;101261.78;5020382;28;20041;-76
2023/07/11 09:31:46;;;;;;;8.65;1.65;;;31.10;74.80;;;30.86;37.53;101264.56;5016367;28;20037;-75
2023/07/11 09:34:38;;;;;;;6.47;1.65;;;31.20;74.80;;;30.82;37.54;101260.50;5019047;28;20045;-75
2023/07/11 09:37:42;;;;;;;5.30;1.50;;;31.20;75.80;;;30.46;37.05;101258.59;5014205;28;20512;-75
2023/07/11 09:40:41;;;;;;;10.57;1.70;;;31.00;74.60;;;30.63;38.05;101255.69;5001302;28;20061;-75
2023/07/11 09:43:08;;;;;;;5.88;1.52;;;31.00;76.10;;;30.74;37.02;101248.91;5018696;28;20494;-76
2023/07/11 09:45:47;;;;;;;8.32;1.45;;;31.10;73.30;;;30.93;37.01;101271.91;5015386;28;20037;-75
2023/07/11 09:48:30;;;;;;;7.90;1.38;;;31.20;74.80;;;30.97;36.76;101265.94;5001434;28;20041;-75
2023/07/11 09:51:24;;;;;;;6.78;1.50;;;31.30;75.20;;;31.16;36.87;101258.16;5001881;28;20032;-76
2023/07/11 09:53:58;;;;;;;10.13;1.77;;;31.40;71.60;;;31.20;36.30;101265.72;5016697;28;20053;-75
2023/07/11 09:56:28;;;;;;;8.00;1.55;;;31.50;73.30;;;31.28;35.97;101265.59;5017559;28;20037;-76
2023/07/11 09:58:59;;;;;;;5.63;1.58;;;31.60;72.90;;;31.33;36.62;101266.88;5003116;28;20064;-75
2023/07/11 10:01:37;;;;;;;4.90;1.58;;;31.70;73.20;;;31.45;35.86;101268.09;5013209;28;20045;-75
2023/07/11 10:04:17;;;;;;;5.82;1.42;;;31.70;73.50;;;31.48;36.22;101268.50;5015423;28;20565;-75
2023/07/11 10:07:03;;;;;;;5.38;1.67;;;31.80;72.90;;;31.60;35.82;101274.28;5016993;28;20496;-75
2023/07/11 10:09:33;;;;;;;13.80;1.45;;;31.80;72.10;;;31.40;36.09;101262.34;5019674;28;20034;-75
2023/07/11 10:12:24;;;;;;;105.53;6.45;;;31.50;71.00;;;30.72;36.29;101261.84;5013076;28;20120;-75
2023/07/11 10:15:01;;;;;;;6.50;1.20;;;31.50;73.70;;;30.63;35.67;101258.41;4930089;29;20272;-75